sensor_id;sensor_type;location;lat;lon;timestamp;pressure;altitude;pressure_sealevel;temperature
41940;BMP180;23057;48.554;14.454;2023-02-18T00:02:31;94227.00;;;14.60
41940;BMP180;23057;48.554;14.454;2023-02-18T00:05:02;94224.00;;;14.60
41940;BMP180;23057;48.554;14.454;2023-02-18T00:07:34;94234.00;;;14.60
41940;BMP180;23057;48.554;14.454;2023-02-18T00:10:08;94235.00;;;14.50
41940;BMP180;23057;48.554;14.454;2023-02-18T00:12:42;94239.00;;;14.50
41940;BMP180;23057;48.554;14.454;2023-02-18T00:15:13;94245.00;;;14.50
41940;BMP180;23057;48.554;14.454;2023-02-18T00:17:43;94237.00;;;14.60
41940;BMP180;23057;48.554;14.454;2023-02-18T00:20:14;94236.00;;;14.60
41940;BMP180;23057;48.554;14.454;2023-02-18T00:22:45;94229.00;;;14.70
41940;BMP180;23057;48.554;14.454;2023-02-18T00:25:16;94236.00;;;14.70
41940;BMP180;23057;48.554;14.454;2023-02-18T00:27:47;94237.00;;;14.60
41940;BMP180;23057;48.554;14.454;2023-02-18T00:30:17;94233.00;;;14.60
41940;BMP180;23057;48.554;14.454;2023-02-18T00:32:48;94242.00;;;14.60
41940;BMP180;23057;48.554;14.454;2023-02-18T00:35:19;94241.00;;;14.60
41940;BMP180;23057;48.554;14.454;2023-02-18T00:37:51;94242.00;;;14.50
41940;BMP180;23057;48.554;14.454;2023-02-18T00:40:22;94231.00;;;14.50
41940;BMP180;23057;48.554;14.454;2023-02-18T00:42:53;94245.00;;;14.50
41940;BMP180;23057;48.554;14.454;2023-02-18T00:45:23;94241.00;;;14.50
41940;BMP180;23057;48.554;14.454;2023-02-18T00:47:54;94250.00;;;14.50
41940;BMP180;23057;48.554;14.454;2023-02-18T00:50:25;94261.00;;;14.50
41940;BMP180;23057;48.554;14.454;2023-02-18T00:52:56;94255.00;;;14.50
41940;BMP180;23057;48.554;14.454;2023-02-18T00:55:26;94258.00;;;14.50
41940;BMP180;23057;48.554;14.454;2023-02-18T00:57:57;94241.00;;;14.50
41940;BMP180;23057;48.554;14.454;2023-02-18T01:00:28;94238.00;;;14.50
41940;BMP180;23057;48.554;14.454;2023-02-18T01:02:59;94238.00;;;14.50
41940;BMP180;23057;48.554;14.454;2023-02-18T01:05:29;94241.00;;;14.50
41940;BMP180;23057;48.554;14.454;2023-02-18T01:08:01;94238.00;;;14.50
41940;BMP180;23057;48.554;14.454;2023-02-18T01:10:33;94229.00;;;14.50
41940;BMP180;23057;48.554;14.454;2023-02-18T01:13:04;94238.00;;;14.50
41940;BMP180;23057;48.554;14.454;2023-02-18T01:15:35;94226.00;;;14.50
41940;BMP180;23057;48.554;14.454;2023-02-18T01:18:06;94233.00;;;14.60
41940;BMP180;23057;48.554;14.454;2023-02-18T01:20:40;94236.00;;;14.60
41940;BMP180;23057;48.554;14.454;2023-02-18T01:23:13;94234.00;;;14.60
41940;BMP180;23057;48.554;14.454;2023-02-18T01:25:44;94228.00;;;14.60
41940;BMP180;23057;48.554;14.454;2023-02-18T01:28:16;94216.00;;;14.60
41940;BMP180;23057;48.554;14.454;2023-02-18T01:30:48;94221.00;;;14.60
41940;BMP180;23057;48.554;14.454;2023-02-18T01:33:19;94211.00;;;14.60
41940;BMP180;23057;48.554;14.454;2023-02-18T01:35:51;94213.00;;;14.60
41940;BMP180;23057;48.554;14.454;2023-02-18T01:38:23;94227.00;;;14.60
41940;BMP180;23057;48.554;14.454;2023-02-18T01:40:54;94218.00;;;14.60
41940;BMP180;23057;48.554;14.454;2023-02-18T01:43:24;94212.00;;;14.60
41940;BMP180;23057;48.554;14.454;2023-02-18T01:45:59;94205.00;;;14.60
41940;BMP180;23057;48.554;14.454;2023-02-18T01:48:41;94209.00;;;14.60
41940;BMP180;23057;48.554;14.454;2023-02-18T01:51:20;94200.00;;;14.60
41940;BMP180;23057;48.554;14.454;2023-02-18T01:54:10;94200.00;;;14.60
41940;BMP180;23057;48.554;14.454;2023-02-18T01:56:54;94212.00;;;14.60
41940;BMP180;23057;48.554;14.454;2023-02-18T01:59:37;94199.00;;;14.60
41940;BMP180;23057;48.554;14.454;2023-02-18T02:02:13;94198.00;;;14.60
41940;BMP180;23057;48.554;14.454;2023-02-18T02:04:47;94209.00;;;14.70
41940;BMP180;23057;48.554;14.454;2023-02-18T02:07:20;94204.00;;;14.70
41940;BMP180;23057;48.554;14.454;2023-02-18T02:09:55;94195.00;;;14.60
41940;BMP180;23057;48.554;14.454;2023-02-18T02:16:05;94193.00;;;14.50
41940;BMP180;23057;48.554;14.454;2023-02-18T02:46:22;94200.00;;;14.60
41940;BMP180;23057;48.554;14.454;2023-02-18T02:49:23;94202.00;;;14.60
41940;BMP180;23057;48.554;14.454;2023-02-18T02:52:13;94193.00;;;14.60
41940;BMP180;23057;48.554;14.454;2023-02-18T02:54:45;94189.00;;;14.60
41940;BMP180;23057;48.554;14.454;2023-02-18T02:59:51;94183.00;;;14.70
41940;BMP180;23057;48.554;14.454;2023-02-18T03:03:05;94187.00;;;14.70
41940;BMP180;23057;48.554;14.454;2023-02-18T03:06:10;94189.00;;;14.70
41940;BMP180;23057;48.554;14.454;2023-02-18T03:18:16;94186.00;;;14.70
41940;BMP180;23057;48.554;14.454;2023-02-18T03:20:56;94185.00;;;14.70
41940;BMP180;23057;48.554;14.454;2023-02-18T03:23:58;94188.00;;;14.70
41940;BMP180;23057;48.554;14.454;2023-02-18T03:26:35;94189.00;;;14.70
41940;BMP180;23057;48.554;14.454;2023-02-18T03:29:13;94182.00;;;14.70
41940;BMP180;23057;48.554;14.454;2023-02-18T03:31:53;94179.00;;;14.70
41940;BMP180;23057;48.554;14.454;2023-02-18T03:34:30;94166.00;;;14.70
41940;BMP180;23057;48.554;14.454;2023-02-18T03:37:06;94173.00;;;14.70
41940;BMP180;23057;48.554;14.454;2023-02-18T03:39:43;94178.00;;;14.80
41940;BMP180;23057;48.554;14.454;2023-02-18T03:42:17;94171.00;;;14.80
41940;BMP180;23057;48.554;14.454;2023-02-18T03:44:48;94168.00;;;14.80
41940;BMP180;23057;48.554;14.454;2023-02-18T03:47:19;94167.00;;;14.80
41940;BMP180;23057;48.554;14.454;2023-02-18T03:49:50;94173.00;;;14.80
41940;BMP180;23057;48.554;14.454;2023-02-18T03:52:21;94167.00;;;14.80
41940;BMP180;23057;48.554;14.454;2023-02-18T03:54:51;94161.00;;;14.80
41940;BMP180;23057;48.554;14.454;2023-02-18T03:57:22;94172.00;;;14.80
41940;BMP180;23057;48.554;14.454;2023-02-18T03:59:53;94179.00;;;14.90
41940;BMP180;23057;48.554;14.454;2023-02-18T04:02:24;94177.00;;;14.90
41940;BMP180;23057;48.554;14.454;2023-02-18T04:04:54;94188.00;;;14.90
41940;BMP180;23057;48.554;14.454;2023-02-18T04:07:25;94183.00;;;14.90
41940;BMP180;23057;48.554;14.454;2023-02-18T04:09:56;94157.00;;;14.90
41940;BMP180;23057;48.554;14.454;2023-02-18T04:12:27;94164.00;;;14.80
41940;BMP180;23057;48.554;14.454;2023-02-18T04:14:57;94158.00;;;14.80
41940;BMP180;23057;48.554;14.454;2023-02-18T04:17:28;94171.00;;;14.90
41940;BMP180;23057;48.554;14.454;2023-02-18T04:19:59;94168.00;;;14.90
41940;BMP180;23057;48.554;14.454;2023-02-18T04:22:30;94167.00;;;14.80
41940;BMP180;23057;48.554;14.454;2023-02-18T04:25:01;94169.00;;;14.80
41940;BMP180;23057;48.554;14.454;2023-02-18T04:27:31;94170.00;;;14.90
41940;BMP180;23057;48.554;14.454;2023-02-18T04:30:03;94163.00;;;14.90
41940;BMP180;23057;48.554;14.454;2023-02-18T04:32:35;94160.00;;;14.90
41940;BMP180;23057;48.554;14.454;2023-02-18T04:35:06;94155.00;;;14.90
41940;BMP180;23057;48.554;14.454;2023-02-18T04:37:37;94158.00;;;14.80
41940;BMP180;23057;48.554;14.454;2023-02-18T04:40:09;94161.00;;;14.80
41940;BMP180;23057;48.554;14.454;2023-02-18T04:42:40;94155.00;;;14.80
41940;BMP180;23057;48.554;14.454;2023-02-18T04:45:10;94158.00;;;14.80
41940;BMP180;23057;48.554;14.454;2023-02-18T04:47:41;94163.00;;;14.80
41940;BMP180;23057;48.554;14.454;2023-02-18T04:50:12;94158.00;;;14.80
41940;BMP180;23057;48.554;14.454;2023-02-18T04:52:43;94163.00;;;14.70
41940;BMP180;23057;48.554;14.454;2023-02-18T04:55:14;94157.00;;;14.70
41940;BMP180;23057;48.554;14.454;2023-02-18T04:57:44;94162.00;;;14.80
41940;BMP180;23057;48.554;14.454;2023-02-18T05:00:17;94171.00;;;14.70
41940;BMP180;23057;48.554;14.454;2023-02-18T05:02:48;94168.00;;;14.80
41940;BMP180;23057;48.554;14.454;2023-02-18T05:05:19;94171.00;;;14.80
41940;BMP180;23057;48.554;14.454;2023-02-18T05:07:50;94179.00;;;14.80
41940;BMP180;23057;48.554;14.454;2023-02-18T05:10:21;94182.00;;;14.80
41940;BMP180;23057;48.554;14.454;2023-02-18T05:12:52;94182.00;;;14.80
41940;BMP180;23057;48.554;14.454;2023-02-18T05:15:22;94181.00;;;14.80
41940;BMP180;23057;48.554;14.454;2023-02-18T05:17:53;94182.00;;;14.80
41940;BMP180;23057;48.554;14.454;2023-02-18T05:20:24;94185.00;;;14.90
41940;BMP180;23057;48.554;14.454;2023-02-18T05:22:56;94189.00;;;14.80
41940;BMP180;23057;48.554;14.454;2023-02-18T05:25:27;94182.00;;;14.90
41940;BMP180;23057;48.554;14.454;2023-02-18T05:27:58;94173.00;;;14.90
41940;BMP180;23057;48.554;14.454;2023-02-18T05:30:28;94164.00;;;14.80
41940;BMP180;23057;48.554;14.454;2023-02-18T05:32:59;94166.00;;;14.80
41940;BMP180;23057;48.554;14.454;2023-02-18T05:35:30;94168.00;;;14.70
41940;BMP180;23057;48.554;14.454;2023-02-18T05:38:00;94163.00;;;14.70
41940;BMP180;23057;48.554;14.454;2023-02-18T05:40:31;94164.00;;;14.70
41940;BMP180;23057;48.554;14.454;2023-02-18T05:43:02;94160.00;;;14.70
41940;BMP180;23057;48.554;14.454;2023-02-18T05:45:33;94166.00;;;14.70
41940;BMP180;23057;48.554;14.454;2023-02-18T05:48:04;94165.00;;;14.70
41940;BMP180;23057;48.554;14.454;2023-02-18T05:50:35;94169.00;;;14.70
41940;BMP180;23057;48.554;14.454;2023-02-18T05:53:06;94158.00;;;14.70
41940;BMP180;23057;48.554;14.454;2023-02-18T05:55:36;94167.00;;;14.70
41940;BMP180;23057;48.554;14.454;2023-02-18T05:58:08;94167.00;;;14.60
41940;BMP180;23057;48.554;14.454;2023-02-18T06:00:39;94172.00;;;14.70
41940;BMP180;23057;48.554;14.454;2023-02-18T06:03:09;94169.00;;;14.70
41940;BMP180;23057;48.554;14.454;2023-02-18T06:05:40;94171.00;;;14.70
41940;BMP180;23057;48.554;14.454;2023-02-18T06:08:11;94169.00;;;14.70
41940;BMP180;23057;48.554;14.454;2023-02-18T06:10:42;94180.00;;;14.70
41940;BMP180;23057;48.554;14.454;2023-02-18T06:13:13;94168.00;;;14.70
41940;BMP180;23057;48.554;14.454;2023-02-18T06:15:43;94173.00;;;14.70
41940;BMP180;23057;48.554;14.454;2023-02-18T06:18:14;94172.00;;;14.70
41940;BMP180;23057;48.554;14.454;2023-02-18T06:20:48;94165.00;;;14.70
41940;BMP180;23057;48.554;14.454;2023-02-18T06:23:19;94169.00;;;14.70
41940;BMP180;23057;48.554;14.454;2023-02-18T06:25:49;94179.00;;;14.70
41940;BMP180;23057;48.554;14.454;2023-02-18T06:28:20;94182.00;;;14.70
41940;BMP180;23057;48.554;14.454;2023-02-18T06:30:51;94182.00;;;14.60
41940;BMP180;23057;48.554;14.454;2023-02-18T06:33:22;94182.00;;;14.70
41940;BMP180;23057;48.554;14.454;2023-02-18T06:35:58;94180.00;;;14.70
41940;BMP180;23057;48.554;14.454;2023-02-18T06:38:35;94183.00;;;14.70
41940;BMP180;23057;48.554;14.454;2023-02-18T06:41:07;94169.00;;;14.70
41940;BMP180;23057;48.554;14.454;2023-02-18T06:43:38;94177.00;;;14.70
41940;BMP180;23057;48.554;14.454;2023-02-18T06:46:09;94182.00;;;14.70
41940;BMP180;23057;48.554;14.454;2023-02-18T06:48:40;94182.00;;;14.70
41940;BMP180;23057;48.554;14.454;2023-02-18T06:51:11;94181.00;;;14.80
41940;BMP180;23057;48.554;14.454;2023-02-18T06:53:42;94183.00;;;14.80
41940;BMP180;23057;48.554;14.454;2023-02-18T06:56:13;94185.00;;;14.80
41940;BMP180;23057;48.554;14.454;2023-02-18T06:58:44;94192.00;;;14.80
41940;BMP180;23057;48.554;14.454;2023-02-18T07:01:14;94188.00;;;14.80
41940;BMP180;23057;48.554;14.454;2023-02-18T07:03:45;94179.00;;;14.80
41940;BMP180;23057;48.554;14.454;2023-02-18T07:06:16;94187.00;;;14.90
41940;BMP180;23057;48.554;14.454;2023-02-18T07:08:47;94187.00;;;14.80
41940;BMP180;23057;48.554;14.454;2023-02-18T07:11:18;94180.00;;;14.80
41940;BMP180;23057;48.554;14.454;2023-02-18T07:13:48;94177.00;;;14.90
41940;BMP180;23057;48.554;14.454;2023-02-18T07:16:19;94190.00;;;14.90
41940;BMP180;23057;48.554;14.454;2023-02-18T07:18:50;94184.00;;;14.90
41940;BMP180;23057;48.554;14.454;2023-02-18T07:21:20;94167.00;;;14.90
41940;BMP180;23057;48.554;14.454;2023-02-18T07:23:51;94169.00;;;14.90
41940;BMP180;23057;48.554;14.454;2023-02-18T07:26:22;94179.00;;;14.90
41940;BMP180;23057;48.554;14.454;2023-02-18T07:28:53;94176.00;;;15.00
41940;BMP180;23057;48.554;14.454;2023-02-18T07:31:24;94160.00;;;15.00
41940;BMP180;23057;48.554;14.454;2023-02-18T07:33:54;94165.00;;;15.00
41940;BMP180;23057;48.554;14.454;2023-02-18T07:36:25;94172.00;;;15.00
41940;BMP180;23057;48.554;14.454;2023-02-18T07:38:56;94170.00;;;15.00
41940;BMP180;23057;48.554;14.454;2023-02-18T07:41:26;94165.00;;;15.00
41940;BMP180;23057;48.554;14.454;2023-02-18T07:43:57;94168.00;;;15.00
41940;BMP180;23057;48.554;14.454;2023-02-18T07:46:28;94181.00;;;15.10
41940;BMP180;23057;48.554;14.454;2023-02-18T07:48:59;94172.00;;;15.10
41940;BMP180;23057;48.554;14.454;2023-02-18T07:51:30;94172.00;;;15.10
41940;BMP180;23057;48.554;14.454;2023-02-18T07:54:01;94168.00;;;15.10
41940;BMP180;23057;48.554;14.454;2023-02-18T07:56:31;94155.00;;;15.20
41940;BMP180;23057;48.554;14.454;2023-02-18T07:59:02;94149.00;;;15.20
41940;BMP180;23057;48.554;14.454;2023-02-18T08:01:33;94145.00;;;15.20
41940;BMP180;23057;48.554;14.454;2023-02-18T08:04:04;94148.00;;;15.30
41940;BMP180;23057;48.554;14.454;2023-02-18T08:06:41;94147.00;;;15.20
41940;BMP180;23057;48.554;14.454;2023-02-18T08:09:16;94150.00;;;15.20
41940;BMP180;23057;48.554;14.454;2023-02-18T08:11:48;94160.00;;;15.20
41940;BMP180;23057;48.554;14.454;2023-02-18T08:14:19;94154.00;;;15.10
41940;BMP180;23057;48.554;14.454;2023-02-18T08:16:49;94164.00;;;15.10
41940;BMP180;23057;48.554;14.454;2023-02-18T08:19:20;94154.00;;;15.10
41940;BMP180;23057;48.554;14.454;2023-02-18T08:21:51;94146.00;;;15.10
41940;BMP180;23057;48.554;14.454;2023-02-18T08:24:21;94156.00;;;15.10
41940;BMP180;23057;48.554;14.454;2023-02-18T08:26:52;94153.00;;;15.10
41940;BMP180;23057;48.554;14.454;2023-02-18T08:29:23;94155.00;;;15.20
41940;BMP180;23057;48.554;14.454;2023-02-18T08:31:54;94149.00;;;15.20
41940;BMP180;23057;48.554;14.454;2023-02-18T08:34:26;94142.00;;;15.20
41940;BMP180;23057;48.554;14.454;2023-02-18T08:36:57;94155.00;;;15.20
41940;BMP180;23057;48.554;14.454;2023-02-18T08:39:28;94135.00;;;15.20
41940;BMP180;23057;48.554;14.454;2023-02-18T08:42:03;94130.00;;;15.20
41940;BMP180;23057;48.554;14.454;2023-02-18T08:44:34;94126.00;;;15.20
41940;BMP180;23057;48.554;14.454;2023-02-18T08:47:05;94134.00;;;15.20
41940;BMP180;23057;48.554;14.454;2023-02-18T08:49:35;94145.00;;;15.20
41940;BMP180;23057;48.554;14.454;2023-02-18T08:52:06;94126.00;;;15.20
41940;BMP180;23057;48.554;14.454;2023-02-18T08:54:37;94135.00;;;15.20
41940;BMP180;23057;48.554;14.454;2023-02-18T08:57:08;94133.00;;;15.30
41940;BMP180;23057;48.554;14.454;2023-02-18T08:59:39;94138.00;;;15.30
41940;BMP180;23057;48.554;14.454;2023-02-18T09:02:12;94138.00;;;15.30
41940;BMP180;23057;48.554;14.454;2023-02-18T09:04:44;94148.00;;;15.30
41940;BMP180;23057;48.554;14.454;2023-02-18T09:07:15;94143.00;;;15.30
41940;BMP180;23057;48.554;14.454;2023-02-18T09:09:46;94139.00;;;15.30
41940;BMP180;23057;48.554;14.454;2023-02-18T09:12:17;94140.00;;;15.30
41940;BMP180;23057;48.554;14.454;2023-02-18T09:14:47;94137.00;;;15.30
41940;BMP180;23057;48.554;14.454;2023-02-18T09:17:18;94129.00;;;15.30
41940;BMP180;23057;48.554;14.454;2023-02-18T09:19:49;94132.00;;;15.30
41940;BMP180;23057;48.554;14.454;2023-02-18T09:22:20;94129.00;;;15.30
41940;BMP180;23057;48.554;14.454;2023-02-18T09:24:51;94126.00;;;15.30
41940;BMP180;23057;48.554;14.454;2023-02-18T09:27:22;94139.00;;;15.30
41940;BMP180;23057;48.554;14.454;2023-02-18T09:29:53;94136.00;;;15.40
41940;BMP180;23057;48.554;14.454;2023-02-18T09:32:23;94125.00;;;15.50
41940;BMP180;23057;48.554;14.454;2023-02-18T09:34:54;94137.00;;;15.50
41940;BMP180;23057;48.554;14.454;2023-02-18T09:37:25;94143.00;;;15.50
41940;BMP180;23057;48.554;14.454;2023-02-18T09:39:55;94142.00;;;15.60
41940;BMP180;23057;48.554;14.454;2023-02-18T09:42:30;94125.00;;;15.60
41940;BMP180;23057;48.554;14.454;2023-02-18T09:45:06;94129.00;;;15.60
41940;BMP180;23057;48.554;14.454;2023-02-18T09:47:42;94127.00;;;15.50
41940;BMP180;23057;48.554;14.454;2023-02-18T09:50:28;94131.00;;;15.60
41940;BMP180;23057;48.554;14.454;2023-02-18T09:53:02;94129.00;;;15.60
41940;BMP180;23057;48.554;14.454;2023-02-18T09:55:40;94129.00;;;15.60
41940;BMP180;23057;48.554;14.454;2023-02-18T09:58:14;94126.00;;;15.50
41940;BMP180;23057;48.554;14.454;2023-02-18T10:00:52;94137.00;;;15.50
41940;BMP180;23057;48.554;14.454;2023-02-18T10:03:29;94133.00;;;15.50
41940;BMP180;23057;48.554;14.454;2023-02-18T10:06:11;94127.00;;;15.60
41940;BMP180;23057;48.554;14.454;2023-02-18T10:08:49;94121.00;;;15.50
41940;BMP180;23057;48.554;14.454;2023-02-18T10:11:35;94123.00;;;15.50
41940;BMP180;23057;48.554;14.454;2023-02-18T10:14:12;94119.00;;;15.50
41940;BMP180;23057;48.554;14.454;2023-02-18T10:16:45;94113.00;;;15.50
41940;BMP180;23057;48.554;14.454;2023-02-18T10:19:27;94114.00;;;15.50
41940;BMP180;23057;48.554;14.454;2023-02-18T10:22:04;94108.00;;;15.50
41940;BMP180;23057;48.554;14.454;2023-02-18T10:24:41;94118.00;;;15.50
41940;BMP180;23057;48.554;14.454;2023-02-18T10:27:20;94113.00;;;15.50
41940;BMP180;23057;48.554;14.454;2023-02-18T10:30:01;94109.00;;;15.40
41940;BMP180;23057;48.554;14.454;2023-02-18T10:32:40;94106.00;;;15.40
41940;BMP180;23057;48.554;14.454;2023-02-18T10:35:37;94099.00;;;15.40
41940;BMP180;23057;48.554;14.454;2023-02-18T10:38:25;94095.00;;;15.40
41940;BMP180;23057;48.554;14.454;2023-02-18T10:41:29;94094.00;;;15.40
41940;BMP180;23057;48.554;14.454;2023-02-18T10:44:45;94098.00;;;15.40
41940;BMP180;23057;48.554;14.454;2023-02-18T10:50:39;94076.00;;;15.40
41940;BMP180;23057;48.554;14.454;2023-02-18T10:53:13;94066.00;;;15.40
41940;BMP180;23057;48.554;14.454;2023-02-18T10:55:46;94055.00;;;15.40
41940;BMP180;23057;48.554;14.454;2023-02-18T11:01:16;94062.00;;;15.50
41940;BMP180;23057;48.554;14.454;2023-02-18T11:04:04;94053.00;;;15.50
41940;BMP180;23057;48.554;14.454;2023-02-18T11:06:43;94056.00;;;15.50
41940;BMP180;23057;48.554;14.454;2023-02-18T11:09:27;94053.00;;;15.50
41940;BMP180;23057;48.554;14.454;2023-02-18T11:12:10;94041.00;;;15.60
41940;BMP180;23057;48.554;14.454;2023-02-18T11:17:37;94051.00;;;15.70
41940;BMP180;23057;48.554;14.454;2023-02-18T11:20:32;94056.00;;;15.70
41940;BMP180;23057;48.554;14.454;2023-02-18T11:25:39;94032.00;;;15.80
41940;BMP180;23057;48.554;14.454;2023-02-18T11:30:43;94021.00;;;15.80
41940;BMP180;23057;48.554;14.454;2023-02-18T11:33:23;94017.00;;;15.90
41940;BMP180;23057;48.554;14.454;2023-02-18T11:35:57;94010.00;;;15.90
41940;BMP180;23057;48.554;14.454;2023-02-18T11:38:59;94009.00;;;15.90
41940;BMP180;23057;48.554;14.454;2023-02-18T11:41:42;94001.00;;;16.00
41940;BMP180;23057;48.554;14.454;2023-02-18T11:44:26;94002.00;;;16.00
41940;BMP180;23057;48.554;14.454;2023-02-18T11:49:44;93988.00;;;16.10
41940;BMP180;23057;48.554;14.454;2023-02-18T11:55:23;93978.00;;;16.20
41940;BMP180;23057;48.554;14.454;2023-02-18T11:58:03;93965.00;;;16.30
41940;BMP180;23057;48.554;14.454;2023-02-18T12:00:46;93968.00;;;16.30
41940;BMP180;23057;48.554;14.454;2023-02-18T12:06:32;93957.00;;;16.50
41940;BMP180;23057;48.554;14.454;2023-02-18T12:09:36;93961.00;;;16.50
41940;BMP180;23057;48.554;14.454;2023-02-18T12:12:25;93951.00;;;16.60
41940;BMP180;23057;48.554;14.454;2023-02-18T12:15:00;93937.00;;;16.60
41940;BMP180;23057;48.554;14.454;2023-02-18T12:18:30;93943.00;;;16.70
41940;BMP180;23057;48.554;14.454;2023-02-18T12:21:02;93946.00;;;16.70
41940;BMP180;23057;48.554;14.454;2023-02-18T12:24:00;93938.00;;;16.70
41940;BMP180;23057;48.554;14.454;2023-02-18T12:36:03;93909.00;;;16.80
41940;BMP180;23057;48.554;14.454;2023-02-18T12:39:02;93899.00;;;16.80
41940;BMP180;23057;48.554;14.454;2023-02-18T12:41:53;93901.00;;;16.80
41940;BMP180;23057;48.554;14.454;2023-02-18T12:45:24;93893.00;;;16.90
41940;BMP180;23057;48.554;14.454;2023-02-18T12:48:42;93892.00;;;16.90
41940;BMP180;23057;48.554;14.454;2023-02-18T13:03:58;93866.00;;;17.10
41940;BMP180;23057;48.554;14.454;2023-02-18T13:06:49;93864.00;;;17.10
41940;BMP180;23057;48.554;14.454;2023-02-18T13:12:25;93860.00;;;17.20
41940;BMP180;23057;48.554;14.454;2023-02-18T13:18:09;93844.00;;;17.10
41940;BMP180;23057;48.554;14.454;2023-02-18T13:20:49;93867.00;;;17.10
41940;BMP180;23057;48.554;14.454;2023-02-18T13:23:35;93858.00;;;17.10
41940;BMP180;23057;48.554;14.454;2023-02-18T13:26:12;93860.00;;;17.10
41940;BMP180;23057;48.554;14.454;2023-02-18T13:31:55;93847.00;;;17.30
41940;BMP180;23057;48.554;14.454;2023-02-18T13:40:30;93836.00;;;17.30
41940;BMP180;23057;48.554;14.454;2023-02-18T13:48:48;93835.00;;;17.50
41940;BMP180;23057;48.554;14.454;2023-02-18T13:51:40;93820.00;;;17.70
41940;BMP180;23057;48.554;14.454;2023-02-18T13:57:04;93829.00;;;17.80
41940;BMP180;23057;48.554;14.454;2023-02-18T13:59:49;93814.00;;;17.90
41940;BMP180;23057;48.554;14.454;2023-02-18T14:05:14;93817.00;;;18.10
41940;BMP180;23057;48.554;14.454;2023-02-18T14:08:13;93821.00;;;18.10
41940;BMP180;23057;48.554;14.454;2023-02-18T14:13:51;93814.00;;;18.20
41940;BMP180;23057;48.554;14.454;2023-02-18T14:16:25;93816.00;;;18.20
41940;BMP180;23057;48.554;14.454;2023-02-18T14:18:59;93804.00;;;18.30
41940;BMP180;23057;48.554;14.454;2023-02-18T14:21:39;93799.00;;;18.20
41940;BMP180;23057;48.554;14.454;2023-02-18T14:24:11;93809.00;;;18.20
41940;BMP180;23057;48.554;14.454;2023-02-18T14:26:45;93800.00;;;18.20
41940;BMP180;23057;48.554;14.454;2023-02-18T14:29:25;93787.00;;;18.20
41940;BMP180;23057;48.554;14.454;2023-02-18T14:32:09;93784.00;;;18.20
41940;BMP180;23057;48.554;14.454;2023-02-18T14:44:17;93776.00;;;17.90
41940;BMP180;23057;48.554;14.454;2023-02-18T14:47:28;93771.00;;;17.90
41940;BMP180;23057;48.554;14.454;2023-02-18T14:50:20;93782.00;;;17.80
41940;BMP180;23057;48.554;14.454;2023-02-18T14:53:02;93780.00;;;17.80
41940;BMP180;23057;48.554;14.454;2023-02-18T14:55:39;93795.00;;;17.80
41940;BMP180;23057;48.554;14.454;2023-02-18T15:03:54;93800.00;;;17.60
41940;BMP180;23057;48.554;14.454;2023-02-18T15:06:33;93803.00;;;17.60
41940;BMP180;23057;48.554;14.454;2023-02-18T15:09:18;93796.00;;;17.60
41940;BMP180;23057;48.554;14.454;2023-02-18T15:14:33;93800.00;;;17.50
41940;BMP180;23057;48.554;14.454;2023-02-18T15:17:15;93801.00;;;17.50
41940;BMP180;23057;48.554;14.454;2023-02-18T15:19:54;93807.00;;;17.50
41940;BMP180;23057;48.554;14.454;2023-02-18T15:22:30;93786.00;;;17.40
41940;BMP180;23057;48.554;14.454;2023-02-18T15:25:03;93793.00;;;17.40
41940;BMP180;23057;48.554;14.454;2023-02-18T15:27:38;93796.00;;;17.40
41940;BMP180;23057;48.554;14.454;2023-02-18T15:30:26;93796.00;;;17.50
41940;BMP180;23057;48.554;14.454;2023-02-18T15:33:00;93779.00;;;17.40
41940;BMP180;23057;48.554;14.454;2023-02-18T15:35:32;93791.00;;;17.40
41940;BMP180;23057;48.554;14.454;2023-02-18T15:38:03;93793.00;;;17.30
41940;BMP180;23057;48.554;14.454;2023-02-18T15:40:36;93784.00;;;17.30
41940;BMP180;23057;48.554;14.454;2023-02-18T15:43:19;93799.00;;;17.30
41940;BMP180;23057;48.554;14.454;2023-02-18T15:45:56;93800.00;;;17.30
41940;BMP180;23057;48.554;14.454;2023-02-18T15:48:43;93804.00;;;17.30
41940;BMP180;23057;48.554;14.454;2023-02-18T15:51:19;93783.00;;;17.20
41940;BMP180;23057;48.554;14.454;2023-02-18T15:53:57;93798.00;;;17.20
41940;BMP180;23057;48.554;14.454;2023-02-18T15:56:35;93802.00;;;17.20
41940;BMP180;23057;48.554;14.454;2023-02-18T15:59:31;93808.00;;;17.20
41940;BMP180;23057;48.554;14.454;2023-02-18T16:04:40;93814.00;;;17.20
41940;BMP180;23057;48.554;14.454;2023-02-18T16:07:48;93807.00;;;17.10
41940;BMP180;23057;48.554;14.454;2023-02-18T16:13:03;93814.00;;;17.10
41940;BMP180;23057;48.554;14.454;2023-02-18T16:15:38;93813.00;;;17.00
41940;BMP180;23057;48.554;14.454;2023-02-18T16:18:25;93819.00;;;17.00
41940;BMP180;23057;48.554;14.454;2023-02-18T16:21:22;93819.00;;;17.00
41940;BMP180;23057;48.554;14.454;2023-02-18T16:23:57;93814.00;;;17.00
41940;BMP180;23057;48.554;14.454;2023-02-18T16:29:12;93818.00;;;16.90
41940;BMP180;23057;48.554;14.454;2023-02-18T16:31:52;93815.00;;;16.80
41940;BMP180;23057;48.554;14.454;2023-02-18T16:34:23;93811.00;;;16.80
41940;BMP180;23057;48.554;14.454;2023-02-18T16:36:54;93826.00;;;16.80
41940;BMP180;23057;48.554;14.454;2023-02-18T16:39:45;93817.00;;;16.70
41940;BMP180;23057;48.554;14.454;2023-02-18T16:42:16;93833.00;;;16.60
41940;BMP180;23057;48.554;14.454;2023-02-18T16:44:47;93824.00;;;16.60
41940;BMP180;23057;48.554;14.454;2023-02-18T16:47:19;93828.00;;;16.60
41940;BMP180;23057;48.554;14.454;2023-02-18T16:49:50;93831.00;;;16.60
41940;BMP180;23057;48.554;14.454;2023-02-18T16:52:21;93837.00;;;16.50
41940;BMP180;23057;48.554;14.454;2023-02-18T16:54:52;93846.00;;;16.50
41940;BMP180;23057;48.554;14.454;2023-02-18T16:57:24;93862.00;;;16.50
41940;BMP180;23057;48.554;14.454;2023-02-18T16:59:55;93860.00;;;16.50
41940;BMP180;23057;48.554;14.454;2023-02-18T17:02:27;93857.00;;;16.50
41940;BMP180;23057;48.554;14.454;2023-02-18T17:05:00;93868.00;;;16.40
41940;BMP180;23057;48.554;14.454;2023-02-18T17:07:31;93859.00;;;16.40
41940;BMP180;23057;48.554;14.454;2023-02-18T17:10:02;93876.00;;;16.40